sensor_id;sensor_type;location;lat;lon;timestamp;P1;durP1;ratioP1;P2;durP2;ratioP2
14470;SDS011;7321;50.802;4.336;2022-09-09T00:04:28;3.60;;;1.53;;
14470;SDS011;7321;50.802;4.336;2022-09-09T00:07:03;2.87;;;1.63;;
14470;SDS011;7321;50.802;4.336;2022-09-09T00:15:05;2.30;;;1.53;;
14470;SDS011;7321;50.802;4.336;2022-09-09T00:20:33;2.10;;;1.70;;
14470;SDS011;7321;50.802;4.336;2022-09-09T00:23:14;5.63;;;1.60;;
14470;SDS011;7321;50.802;4.336;2022-09-09T00:26:04;5.72;;;1.83;;
14470;SDS011;7321;50.802;4.336;2022-09-09T00:28:41;3.65;;;1.50;;
14470;SDS011;7321;50.802;4.336;2022-09-09T00:31:28;4.73;;;1.70;;
14470;SDS011;7321;50.802;4.336;2022-09-09T00:36:47;3.60;;;1.48;;
14470;SDS011;7321;50.802;4.336;2022-09-09T00:42:15;5.75;;;1.65;;
14470;SDS011;7321;50.802;4.336;2022-09-09T00:44:53;3.60;;;1.50;;
14470;SDS011;7321;50.802;4.336;2022-09-09T00:47:50;3.30;;;1.37;;
14470;SDS011;7321;50.802;4.336;2022-09-09T00:58:34;4.93;;;1.83;;
14470;SDS011;7321;50.802;4.336;2022-09-09T01:14:35;6.22;;;1.75;;
14470;SDS011;7321;50.802;4.336;2022-09-09T01:17:11;4.78;;;1.65;;
14470;SDS011;7321;50.802;4.336;2022-09-09T01:27:27;4.05;;;1.80;;
14470;SDS011;7321;50.802;4.336;2022-09-09T01:29:53;7.03;;;2.77;;
14470;SDS011;7321;50.802;4.336;2022-09-09T01:32:54;5.97;;;2.30;;
14470;SDS011;7321;50.802;4.336;2022-09-09T01:35:57;5.15;;;2.03;;
14470;SDS011;7321;50.802;4.336;2022-09-09T01:38:06;6.63;;;2.10;;
14470;SDS011;7321;50.802;4.336;2022-09-09T01:40:32;6.30;;;1.93;;
14470;SDS011;7321;50.802;4.336;2022-09-09T01:42:58;6.60;;;2.20;;
14470;SDS011;7321;50.802;4.336;2022-09-09T01:45:24;4.60;;;2.17;;
14470;SDS011;7321;50.802;4.336;2022-09-09T01:47:51;5.50;;;2.17;;
14470;SDS011;7321;50.802;4.336;2022-09-09T01:50:18;5.20;;;1.90;;
14470;SDS011;7321;50.802;4.336;2022-09-09T01:52:46;6.97;;;2.10;;
14470;SDS011;7321;50.802;4.336;2022-09-09T01:55:15;5.40;;;2.00;;
14470;SDS011;7321;50.802;4.336;2022-09-09T02:00:31;4.88;;;2.30;;
14470;SDS011;7321;50.802;4.336;2022-09-09T02:03:05;9.65;;;2.78;;
14470;SDS011;7321;50.802;4.336;2022-09-09T02:06:24;6.20;;;2.40;;
14470;SDS011;7321;50.802;4.336;2022-09-09T02:08:45;6.32;;;2.40;;
14470;SDS011;7321;50.802;4.336;2022-09-09T02:11:16;5.30;;;2.27;;
14470;SDS011;7321;50.802;4.336;2022-09-09T02:13:47;6.40;;;2.40;;
14470;SDS011;7321;50.802;4.336;2022-09-09T02:19:29;7.80;;;2.20;;
14470;SDS011;7321;50.802;4.336;2022-09-09T02:22:00;6.70;;;2.50;;
14470;SDS011;7321;50.802;4.336;2022-09-09T02:24:28;7.57;;;2.70;;
14470;SDS011;7321;50.802;4.336;2022-09-09T02:26:56;7.90;;;2.97;;
14470;SDS011;7321;50.802;4.336;2022-09-09T02:29:26;7.47;;;2.47;;
14470;SDS011;7321;50.802;4.336;2022-09-09T02:31:57;6.32;;;2.38;;
14470;SDS011;7321;50.802;4.336;2022-09-09T02:34:28;5.97;;;2.93;;
14470;SDS011;7321;50.802;4.336;2022-09-09T02:36:56;5.50;;;2.63;;
14470;SDS011;7321;50.802;4.336;2022-09-09T02:39:25;9.50;;;3.13;;
14470;SDS011;7321;50.802;4.336;2022-09-09T02:41:51;10.13;;;3.20;;
14470;SDS011;7321;50.802;4.336;2022-09-09T02:44:17;4.77;;;2.50;;
14470;SDS011;7321;50.802;4.336;2022-09-09T02:46:52;9.40;;;2.60;;
14470;SDS011;7321;50.802;4.336;2022-09-09T02:52:07;10.47;;;2.77;;
14470;SDS011;7321;50.802;4.336;2022-09-09T02:54:40;5.88;;;2.58;;
14470;SDS011;7321;50.802;4.336;2022-09-09T02:57:25;7.95;;;2.65;;
14470;SDS011;7321;50.802;4.336;2022-09-09T02:59:53;9.57;;;2.70;;
14470;SDS011;7321;50.802;4.336;2022-09-09T03:02:21;6.05;;;2.63;;
14470;SDS011;7321;50.802;4.336;2022-09-09T03:04:47;7.83;;;2.67;;
14470;SDS011;7321;50.802;4.336;2022-09-09T03:07:17;8.47;;;2.67;;
14470;SDS011;7321;50.802;4.336;2022-09-09T03:09:43;6.45;;;2.50;;
14470;SDS011;7321;50.802;4.336;2022-09-09T03:12:10;6.70;;;2.67;;
14470;SDS011;7321;50.802;4.336;2022-09-09T03:14:36;6.30;;;2.37;;
14470;SDS011;7321;50.802;4.336;2022-09-09T03:17:03;8.88;;;2.50;;
14470;SDS011;7321;50.802;4.336;2022-09-09T03:19:30;5.78;;;2.53;;
14470;SDS011;7321;50.802;4.336;2022-09-09T03:21:56;9.13;;;3.00;;
14470;SDS011;7321;50.802;4.336;2022-09-09T03:24:23;9.20;;;3.10;;
14470;SDS011;7321;50.802;4.336;2022-09-09T03:26:49;9.27;;;2.43;;
14470;SDS011;7321;50.802;4.336;2022-09-09T03:29:15;9.23;;;2.75;;
14470;SDS011;7321;50.802;4.336;2022-09-09T03:31:42;5.93;;;2.93;;
14470;SDS011;7321;50.802;4.336;2022-09-09T03:34:08;8.07;;;2.60;;
14470;SDS011;7321;50.802;4.336;2022-09-09T03:36:34;8.83;;;2.67;;
14470;SDS011;7321;50.802;4.336;2022-09-09T03:39:01;7.40;;;3.03;;
14470;SDS011;7321;50.802;4.336;2022-09-09T03:41:28;7.70;;;3.00;;
14470;SDS011;7321;50.802;4.336;2022-09-09T03:43:55;6.13;;;2.50;;
14470;SDS011;7321;50.802;4.336;2022-09-09T03:46:24;8.93;;;3.17;;
14470;SDS011;7321;50.802;4.336;2022-09-09T03:48:50;8.50;;;2.73;;
14470;SDS011;7321;50.802;4.336;2022-09-09T03:51:20;11.57;;;3.13;;
14470;SDS011;7321;50.802;4.336;2022-09-09T03:53:46;6.90;;;2.70;;
14470;SDS011;7321;50.802;4.336;2022-09-09T03:56:12;7.90;;;2.80;;
14470;SDS011;7321;50.802;4.336;2022-09-09T03:58:38;8.97;;;2.73;;
14470;SDS011;7321;50.802;4.336;2022-09-09T04:03:33;12.27;;;3.27;;
14470;SDS011;7321;50.802;4.336;2022-09-09T04:06:00;7.10;;;2.77;;
14470;SDS011;7321;50.802;4.336;2022-09-09T04:08:28;6.77;;;2.53;;
14470;SDS011;7321;50.802;4.336;2022-09-09T04:10:56;8.13;;;2.67;;
14470;SDS011;7321;50.802;4.336;2022-09-09T04:13:23;6.67;;;2.57;;
14470;SDS011;7321;50.802;4.336;2022-09-09T04:15:57;8.77;;;2.60;;
14470;SDS011;7321;50.802;4.336;2022-09-09T04:18:23;6.37;;;2.70;;
14470;SDS011;7321;50.802;4.336;2022-09-09T04:20:51;7.17;;;2.70;;
14470;SDS011;7321;50.802;4.336;2022-09-09T04:23:18;10.63;;;3.43;;
14470;SDS011;7321;50.802;4.336;2022-09-09T04:25:46;6.50;;;2.77;;
14470;SDS011;7321;50.802;4.336;2022-09-09T04:28:17;8.27;;;2.75;;
14470;SDS011;7321;50.802;4.336;2022-09-09T04:30:43;5.93;;;2.47;;
14470;SDS011;7321;50.802;4.336;2022-09-09T04:33:10;10.27;;;3.67;;
14470;SDS011;7321;50.802;4.336;2022-09-09T04:35:38;9.10;;;3.20;;
14470;SDS011;7321;50.802;4.336;2022-09-09T04:38:16;10.00;;;3.37;;
14470;SDS011;7321;50.802;4.336;2022-09-09T04:40:43;10.13;;;3.17;;
14470;SDS011;7321;50.802;4.336;2022-09-09T04:43:13;7.97;;;3.27;;
14470;SDS011;7321;50.802;4.336;2022-09-09T04:45:40;10.97;;;3.83;;
14470;SDS011;7321;50.802;4.336;2022-09-09T04:48:11;8.85;;;3.35;;
14470;SDS011;7321;50.802;4.336;2022-09-09T04:50:37;8.77;;;3.43;;
14470;SDS011;7321;50.802;4.336;2022-09-09T04:53:06;8.83;;;3.60;;
14470;SDS011;7321;50.802;4.336;2022-09-09T04:55:32;8.00;;;3.13;;
14470;SDS011;7321;50.802;4.336;2022-09-09T04:58:07;9.20;;;2.90;;
14470;SDS011;7321;50.802;4.336;2022-09-09T05:00:34;5.97;;;3.63;;
14470;SDS011;7321;50.802;4.336;2022-09-09T05:03:04;11.40;;;4.13;;
14470;SDS011;7321;50.802;4.336;2022-09-09T05:05:32;11.57;;;3.43;;
14470;SDS011;7321;50.802;4.336;2022-09-09T05:08:02;10.90;;;3.83;;
14470;SDS011;7321;50.802;4.336;2022-09-09T05:10:36;9.37;;;4.10;;
14470;SDS011;7321;50.802;4.336;2022-09-09T05:13:03;6.50;;;3.40;;
14470;SDS011;7321;50.802;4.336;2022-09-09T05:15:29;8.73;;;3.67;;
14470;SDS011;7321;50.802;4.336;2022-09-09T05:18:01;6.67;;;3.50;;
14470;SDS011;7321;50.802;4.336;2022-09-09T05:20:28;8.55;;;3.25;;
14470;SDS011;7321;50.802;4.336;2022-09-09T05:22:54;9.50;;;4.17;;
14470;SDS011;7321;50.802;4.336;2022-09-09T05:25:20;10.10;;;3.23;;
14470;SDS011;7321;50.802;4.336;2022-09-09T05:27:47;11.03;;;3.73;;
14470;SDS011;7321;50.802;4.336;2022-09-09T05:30:13;8.43;;;3.20;;
14470;SDS011;7321;50.802;4.336;2022-09-09T05:32:39;11.30;;;3.50;;
14470;SDS011;7321;50.802;4.336;2022-09-09T05:35:05;12.77;;;3.53;;
14470;SDS011;7321;50.802;4.336;2022-09-09T05:37:31;7.57;;;3.27;;
14470;SDS011;7321;50.802;4.336;2022-09-09T05:39:56;9.35;;;3.40;;
14470;SDS011;7321;50.802;4.336;2022-09-09T05:42:23;6.75;;;2.70;;
14470;SDS011;7321;50.802;4.336;2022-09-09T05:44:49;8.35;;;2.83;;
14470;SDS011;7321;50.802;4.336;2022-09-09T05:47:16;8.50;;;3.58;;
14470;SDS011;7321;50.802;4.336;2022-09-09T05:49:42;9.05;;;3.50;;
14470;SDS011;7321;50.802;4.336;2022-09-09T05:52:08;8.40;;;3.15;;
14470;SDS011;7321;50.802;4.336;2022-09-09T05:54:35;12.93;;;3.27;;
14470;SDS011;7321;50.802;4.336;2022-09-09T05:57:02;7.43;;;2.80;;
14470;SDS011;7321;50.802;4.336;2022-09-09T05:59:28;10.33;;;3.23;;
14470;SDS011;7321;50.802;4.336;2022-09-09T06:01:53;10.50;;;3.07;;
14470;SDS011;7321;50.802;4.336;2022-09-09T06:04:19;8.32;;;3.15;;
14470;SDS011;7321;50.802;4.336;2022-09-09T06:06:47;5.50;;;2.83;;
14470;SDS011;7321;50.802;4.336;2022-09-09T06:09:13;9.77;;;3.83;;
14470;SDS011;7321;50.802;4.336;2022-09-09T06:11:40;7.28;;;3.05;;
14470;SDS011;7321;50.802;4.336;2022-09-09T06:14:06;7.68;;;3.30;;
14470;SDS011;7321;50.802;4.336;2022-09-09T06:16:33;8.60;;;3.38;;
14470;SDS011;7321;50.802;4.336;2022-09-09T06:18:59;11.10;;;2.83;;
14470;SDS011;7321;50.802;4.336;2022-09-09T06:21:27;7.75;;;2.83;;
14470;SDS011;7321;50.802;4.336;2022-09-09T06:24:02;7.28;;;2.95;;
14470;SDS011;7321;50.802;4.336;2022-09-09T06:26:32;10.65;;;2.90;;
14470;SDS011;7321;50.802;4.336;2022-09-09T06:28:59;7.70;;;3.05;;
14470;SDS011;7321;50.802;4.336;2022-09-09T06:31:27;7.78;;;3.22;;
14470;SDS011;7321;50.802;4.336;2022-09-09T06:33:57;11.25;;;3.13;;
14470;SDS011;7321;50.802;4.336;2022-09-09T06:36:25;9.55;;;2.70;;
14470;SDS011;7321;50.802;4.336;2022-09-09T06:38:52;11.85;;;3.53;;
14470;SDS011;7321;50.802;4.336;2022-09-09T06:41:19;6.72;;;3.10;;
14470;SDS011;7321;50.802;4.336;2022-09-09T06:43:46;10.35;;;2.95;;
14470;SDS011;7321;50.802;4.336;2022-09-09T06:46:13;9.43;;;3.13;;
14470;SDS011;7321;50.802;4.336;2022-09-09T06:48:39;7.22;;;2.95;;
14470;SDS011;7321;50.802;4.336;2022-09-09T06:51:08;6.85;;;2.60;;
14470;SDS011;7321;50.802;4.336;2022-09-09T06:53:36;8.93;;;2.92;;
14470;SDS011;7321;50.802;4.336;2022-09-09T06:58:35;7.85;;;2.63;;
14470;SDS011;7321;50.802;4.336;2022-09-09T07:01:09;7.45;;;2.92;;
14470;SDS011;7321;50.802;4.336;2022-09-09T07:03:40;9.10;;;2.83;;
14470;SDS011;7321;50.802;4.336;2022-09-09T07:06:08;7.18;;;2.63;;
14470;SDS011;7321;50.802;4.336;2022-09-09T07:08:40;6.72;;;2.85;;
14470;SDS011;7321;50.802;4.336;2022-09-09T07:11:06;6.75;;;2.58;;
14470;SDS011;7321;50.802;4.336;2022-09-09T07:13:34;7.43;;;2.70;;
14470;SDS011;7321;50.802;4.336;2022-09-09T07:16:04;5.32;;;2.40;;
14470;SDS011;7321;50.802;4.336;2022-09-09T07:18:31;7.18;;;2.40;;
14470;SDS011;7321;50.802;4.336;2022-09-09T07:20:56;19.52;;;3.22;;
14470;SDS011;7321;50.802;4.336;2022-09-09T07:23:22;8.02;;;2.60;;
14470;SDS011;7321;50.802;4.336;2022-09-09T07:25:49;6.13;;;2.58;;
14470;SDS011;7321;50.802;4.336;2022-09-09T07:28:15;5.20;;;2.40;;
14470;SDS011;7321;50.802;4.336;2022-09-09T07:30:42;6.90;;;2.70;;
14470;SDS011;7321;50.802;4.336;2022-09-09T07:33:08;8.88;;;2.70;;
14470;SDS011;7321;50.802;4.336;2022-09-09T07:35:35;8.32;;;3.15;;
14470;SDS011;7321;50.802;4.336;2022-09-09T07:38:02;6.85;;;2.90;;
14470;SDS011;7321;50.802;4.336;2022-09-09T07:40:32;4.75;;;2.45;;
14470;SDS011;7321;50.802;4.336;2022-09-09T07:42:59;8.05;;;2.83;;
14470;SDS011;7321;50.802;4.336;2022-09-09T07:45:25;8.00;;;3.38;;
14470;SDS011;7321;50.802;4.336;2022-09-09T07:47:53;8.18;;;4.00;;
14470;SDS011;7321;50.802;4.336;2022-09-09T07:50:24;9.82;;;2.97;;
14470;SDS011;7321;50.802;4.336;2022-09-09T07:52:53;9.48;;;3.08;;
14470;SDS011;7321;50.802;4.336;2022-09-09T07:55:22;7.20;;;3.20;;
14470;SDS011;7321;50.802;4.336;2022-09-09T07:57:52;8.32;;;3.70;;
14470;SDS011;7321;50.802;4.336;2022-09-09T08:00:18;7.82;;;2.83;;
14470;SDS011;7321;50.802;4.336;2022-09-09T08:02:45;8.82;;;3.60;;
14470;SDS011;7321;50.802;4.336;2022-09-09T08:05:11;8.70;;;3.10;;
14470;SDS011;7321;50.802;4.336;2022-09-09T08:07:41;6.43;;;2.55;;
14470;SDS011;7321;50.802;4.336;2022-09-09T08:10:08;8.32;;;4.18;;
14470;SDS011;7321;50.802;4.336;2022-09-09T08:12:34;4.28;;;2.35;;
14470;SDS011;7321;50.802;4.336;2022-09-09T08:14:59;7.47;;;2.40;;
14470;SDS011;7321;50.802;4.336;2022-09-09T08:17:25;8.07;;;3.03;;
14470;SDS011;7321;50.802;4.336;2022-09-09T08:19:51;6.65;;;3.03;;
14470;SDS011;7321;50.802;4.336;2022-09-09T08:22:17;4.65;;;2.22;;
14470;SDS011;7321;50.802;4.336;2022-09-09T08:24:43;7.80;;;2.50;;
14470;SDS011;7321;50.802;4.336;2022-09-09T08:27:08;8.82;;;2.60;;
14470;SDS011;7321;50.802;4.336;2022-09-09T08:29:35;6.93;;;2.63;;
14470;SDS011;7321;50.802;4.336;2022-09-09T08:32:03;8.23;;;2.95;;
14470;SDS011;7321;50.802;4.336;2022-09-09T08:34:29;7.28;;;2.90;;
14470;SDS011;7321;50.802;4.336;2022-09-09T08:36:56;10.52;;;2.92;;
14470;SDS011;7321;50.802;4.336;2022-09-09T08:39:22;6.38;;;2.97;;
14470;SDS011;7321;50.802;4.336;2022-09-09T08:41:55;8.40;;;2.90;;
14470;SDS011;7321;50.802;4.336;2022-09-09T08:58:14;5.25;;;2.55;;
14470;SDS011;7321;50.802;4.336;2022-09-09T09:01:33;5.80;;;2.60;;
14470;SDS011;7321;50.802;4.336;2022-09-09T09:06:33;7.80;;;3.10;;
14470;SDS011;7321;50.802;4.336;2022-09-09T09:12:28;6.80;;;2.92;;
14470;SDS011;7321;50.802;4.336;2022-09-09T09:14:54;6.75;;;3.03;;
14470;SDS011;7321;50.802;4.336;2022-09-09T09:17:21;11.50;;;3.38;;
14470;SDS011;7321;50.802;4.336;2022-09-09T09:19:50;7.80;;;2.53;;
14470;SDS011;7321;50.802;4.336;2022-09-09T09:22:25;7.75;;;3.25;;
14470;SDS011;7321;50.802;4.336;2022-09-09T09:25:15;8.70;;;3.10;;
14470;SDS011;7321;50.802;4.336;2022-09-09T09:27:49;11.38;;;3.85;;
14470;SDS011;7321;50.802;4.336;2022-09-09T09:30:18;9.65;;;3.75;;
14470;SDS011;7321;50.802;4.336;2022-09-09T09:32:54;8.13;;;3.50;;
14470;SDS011;7321;50.802;4.336;2022-09-09T09:35:26;8.18;;;3.10;;
14470;SDS011;7321;50.802;4.336;2022-09-09T09:37:51;6.78;;;3.10;;
14470;SDS011;7321;50.802;4.336;2022-09-09T09:40:19;4.60;;;2.90;;
14470;SDS011;7321;50.802;4.336;2022-09-09T09:43:01;8.18;;;3.35;;
14470;SDS011;7321;50.802;4.336;2022-09-09T09:45:34;6.47;;;3.00;;
14470;SDS011;7321;50.802;4.336;2022-09-09T09:48:08;5.30;;;2.83;;
14470;SDS011;7321;50.802;4.336;2022-09-09T09:50:40;6.05;;;3.20;;
14470;SDS011;7321;50.802;4.336;2022-09-09T09:53:21;5.60;;;2.90;;
14470;SDS011;7321;50.802;4.336;2022-09-09T09:56:08;8.48;;;2.38;;
14470;SDS011;7321;50.802;4.336;2022-09-09T10:01:33;5.72;;;2.63;;
14470;SDS011;7321;50.802;4.336;2022-09-09T10:04:01;6.40;;;2.85;;
14470;SDS011;7321;50.802;4.336;2022-09-09T10:06:38;4.65;;;2.40;;
14470;SDS011;7321;50.802;4.336;2022-09-09T10:11:57;5.90;;;2.72;;
14470;SDS011;7321;50.802;4.336;2022-09-09T10:14:43;7.90;;;3.03;;
14470;SDS011;7321;50.802;4.336;2022-09-09T10:17:20;7.05;;;3.15;;
14470;SDS011;7321;50.802;4.336;2022-09-09T10:19:55;5.40;;;3.05;;
14470;SDS011;7321;50.802;4.336;2022-09-09T10:22:39;6.18;;;3.13;;
14470;SDS011;7321;50.802;4.336;2022-09-09T10:31:11;7.93;;;4.07;;
14470;SDS011;7321;50.802;4.336;2022-09-09T10:33:50;6.53;;;3.25;;
14470;SDS011;7321;50.802;4.336;2022-09-09T10:36:35;8.02;;;3.28;;
14470;SDS011;7321;50.802;4.336;2022-09-09T10:47:43;6.93;;;2.80;;
14470;SDS011;7321;50.802;4.336;2022-09-09T10:50:55;8.80;;;3.05;;
14470;SDS011;7321;50.802;4.336;2022-09-09T10:56:23;6.45;;;2.65;;
14470;SDS011;7321;50.802;4.336;2022-09-09T11:01:41;6.68;;;2.58;;
14470;SDS011;7321;50.802;4.336;2022-09-09T11:04:19;7.20;;;2.95;;
14470;SDS011;7321;50.802;4.336;2022-09-09T11:06:54;6.53;;;2.22;;
14470;SDS011;7321;50.802;4.336;2022-09-09T11:09:22;7.20;;;2.85;;
14470;SDS011;7321;50.802;4.336;2022-09-09T11:17:42;4.65;;;2.35;;
14470;SDS011;7321;50.802;4.336;2022-09-09T11:19:49;4.55;;;2.47;;
14470;SDS011;7321;50.802;4.336;2022-09-09T11:25:10;9.05;;;2.97;;
14470;SDS011;7321;50.802;4.336;2022-09-09T11:36:04;7.05;;;2.92;;
14470;SDS011;7321;50.802;4.336;2022-09-09T11:38:53;5.30;;;2.63;;
14470;SDS011;7321;50.802;4.336;2022-09-09T11:41:51;5.32;;;2.30;;
14470;SDS011;7321;50.802;4.336;2022-09-09T11:44:17;8.57;;;2.47;;
14470;SDS011;7321;50.802;4.336;2022-09-09T11:46:51;6.43;;;2.50;;
14470;SDS011;7321;50.802;4.336;2022-09-09T11:49:39;10.02;;;2.47;;
14470;SDS011;7321;50.802;4.336;2022-09-09T11:52:23;8.25;;;2.10;;
14470;SDS011;7321;50.802;4.336;2022-09-09T11:55:10;3.20;;;2.00;;
14470;SDS011;7321;50.802;4.336;2022-09-09T11:57:58;11.57;;;2.45;;
14470;SDS011;7321;50.802;4.336;2022-09-09T12:00:39;5.53;;;1.85;;
14470;SDS011;7321;50.802;4.336;2022-09-09T12:06:25;4.53;;;1.90;;
14470;SDS011;7321;50.802;4.336;2022-09-09T12:08:58;7.05;;;2.30;;
14470;SDS011;7321;50.802;4.336;2022-09-09T12:11:49;4.65;;;2.30;;
14470;SDS011;7321;50.802;4.336;2022-09-09T12:14:19;5.97;;;2.40;;
14470;SDS011;7321;50.802;4.336;2022-09-09T12:17:08;4.82;;;1.95;;
14470;SDS011;7321;50.802;4.336;2022-09-09T12:19:47;5.68;;;2.20;;
14470;SDS011;7321;50.802;4.336;2022-09-09T12:27:53;7.07;;;2.70;;
14470;SDS011;7321;50.802;4.336;2022-09-09T12:30:40;5.00;;;2.20;;
14470;SDS011;7321;50.802;4.336;2022-09-09T12:33:17;3.17;;;1.88;;
14470;SDS011;7321;50.802;4.336;2022-09-09T12:35:44;4.10;;;1.90;;
14470;SDS011;7321;50.802;4.336;2022-09-09T12:38:17;5.15;;;2.00;;
14470;SDS011;7321;50.802;4.336;2022-09-09T12:40:57;5.03;;;2.03;;
14470;SDS011;7321;50.802;4.336;2022-09-09T12:43:24;5.65;;;1.80;;
14470;SDS011;7321;50.802;4.336;2022-09-09T12:45:55;2.83;;;1.80;;
14470;SDS011;7321;50.802;4.336;2022-09-09T12:48:47;3.97;;;1.90;;
14470;SDS011;7321;50.802;4.336;2022-09-09T12:51:17;5.53;;;1.75;;
14470;SDS011;7321;50.802;4.336;2022-09-09T12:53:52;5.50;;;2.22;;
14470;SDS011;7321;50.802;4.336;2022-09-09T12:56:19;3.92;;;1.80;;
14470;SDS011;7321;50.802;4.336;2022-09-09T12:58:51;3.15;;;1.67;;
14470;SDS011;7321;50.802;4.336;2022-09-09T13:01:24;4.63;;;2.22;;
14470;SDS011;7321;50.802;4.336;2022-09-09T13:03:52;5.38;;;1.75;;
14470;SDS011;7321;50.802;4.336;2022-09-09T13:06:20;3.95;;;2.08;;
14470;SDS011;7321;50.802;4.336;2022-09-09T13:08:51;3.15;;;1.65;;
14470;SDS011;7321;50.802;4.336;2022-09-09T13:11:39;4.90;;;1.92;;
14470;SDS011;7321;50.802;4.336;2022-09-09T13:14:15;6.75;;;1.95;;
14470;SDS011;7321;50.802;4.336;2022-09-09T13:16:57;7.40;;;2.72;;
14470;SDS011;7321;50.802;4.336;2022-09-09T13:19:25;3.15;;;1.77;;
14470;SDS011;7321;50.802;4.336;2022-09-09T13:21:53;2.72;;;1.85;;
14470;SDS011;7321;50.802;4.336;2022-09-09T13:24:33;3.88;;;1.50;;
14470;SDS011;7321;50.802;4.336;2022-09-09T13:27:00;2.92;;;1.50;;
14470;SDS011;7321;50.802;4.336;2022-09-09T13:29:28;4.13;;;1.40;;
14470;SDS011;7321;50.802;4.336;2022-09-09T13:32:05;4.60;;;2.00;;
14470;SDS011;7321;50.802;4.336;2022-09-09T13:34:38;3.63;;;1.42;;
14470;SDS011;7321;50.802;4.336;2022-09-09T13:37:04;5.30;;;1.55;;
14470;SDS011;7321;50.802;4.336;2022-09-09T13:39:35;3.63;;;1.67;;
14470;SDS011;7321;50.802;4.336;2022-09-09T13:42:02;4.38;;;2.00;;
14470;SDS011;7321;50.802;4.336;2022-09-09T13:44:34;2.65;;;1.30;;
14470;SDS011;7321;50.802;4.336;2022-09-09T13:47:05;5.50;;;1.80;;
14470;SDS011;7321;50.802;4.336;2022-09-09T13:49:37;2.83;;;1.48;;
14470;SDS011;7321;50.802;4.336;2022-09-09T13:52:10;3.45;;;1.33;;
14470;SDS011;7321;50.802;4.336;2022-09-09T13:54:39;3.83;;;1.70;;
14470;SDS011;7321;50.802;4.336;2022-09-09T13:57:05;4.68;;;1.65;;
14470;SDS011;7321;50.802;4.336;2022-09-09T13:59:39;4.80;;;1.90;;
14470;SDS011;7321;50.802;4.336;2022-09-09T14:02:06;3.60;;;1.70;;
14470;SDS011;7321;50.802;4.336;2022-09-09T14:04:32;4.90;;;1.77;;
14470;SDS011;7321;50.802;4.336;2022-09-09T14:07:00;4.30;;;1.65;;
14470;SDS011;7321;50.802;4.336;2022-09-09T14:09:26;4.15;;;1.90;;
14470;SDS011;7321;50.802;4.336;2022-09-09T14:11:52;2.30;;;1.80;;
14470;SDS011;7321;50.802;4.336;2022-09-09T14:14:18;4.90;;;2.15;;
14470;SDS011;7321;50.802;4.336;2022-09-09T14:16:43;4.60;;;2.00;;
14470;SDS011;7321;50.802;4.336;2022-09-09T14:19:09;7.03;;;2.33;;
14470;SDS011;7321;50.802;4.336;2022-09-09T14:21:35;4.63;;;1.90;;
14470;SDS011;7321;50.802;4.336;2022-09-09T14:24:01;3.60;;;2.00;;
14470;SDS011;7321;50.802;4.336;2022-09-09T14:26:26;5.72;;;2.25;;
14470;SDS011;7321;50.802;4.336;2022-09-09T14:28:54;3.92;;;1.85;;
14470;SDS011;7321;50.802;4.336;2022-09-09T14:31:19;4.03;;;1.77;;
14470;SDS011;7321;50.802;4.336;2022-09-09T14:33:46;3.17;;;1.92;;
14470;SDS011;7321;50.802;4.336;2022-09-09T14:36:12;2.42;;;1.50;;
14470;SDS011;7321;50.802;4.336;2022-09-09T14:38:38;4.80;;;2.25;;
14470;SDS011;7321;50.802;4.336;2022-09-09T14:41:05;2.75;;;1.88;;
14470;SDS011;7321;50.802;4.336;2022-09-09T14:43:32;5.05;;;1.75;;
14470;SDS011;7321;50.802;4.336;2022-09-09T14:46:04;3.05;;;1.65;;
14470;SDS011;7321;50.802;4.336;2022-09-09T14:48:31;3.50;;;1.88;;
14470;SDS011;7321;50.802;4.336;2022-09-09T14:51:04;4.07;;;1.98;;
14470;SDS011;7321;50.802;4.336;2022-09-09T14:53:33;5.53;;;2.28;;
14470;SDS011;7321;50.802;4.336;2022-09-09T14:58:32;5.70;;;2.40;;
14470;SDS011;7321;50.802;4.336;2022-09-09T15:01:02;5.50;;;1.55;;
14470;SDS011;7321;50.802;4.336;2022-09-09T15:03:29;5.40;;;2.03;;
14470;SDS011;7321;50.802;4.336;2022-09-09T15:05:55;3.78;;;1.50;;
14470;SDS011;7321;50.802;4.336;2022-09-09T15:08:20;3.45;;;1.92;;
14470;SDS011;7321;50.802;4.336;2022-09-09T15:10:46;5.13;;;1.70;;
14470;SDS011;7321;50.802;4.336;2022-09-09T15:13:14;3.42;;;1.70;;
14470;SDS011;7321;50.802;4.336;2022-09-09T15:15:42;5.10;;;2.05;;
14470;SDS011;7321;50.802;4.336;2022-09-09T15:18:08;3.83;;;1.70;;
14470;SDS011;7321;50.802;4.336;2022-09-09T15:20:33;2.55;;;1.60;;
14470;SDS011;7321;50.802;4.336;2022-09-09T15:23:00;3.90;;;1.60;;
14470;SDS011;7321;50.802;4.336;2022-09-09T15:25:26;2.50;;;1.75;;
14470;SDS011;7321;50.802;4.336;2022-09-09T15:27:52;4.88;;;1.95;;
14470;SDS011;7321;50.802;4.336;2022-09-09T15:30:17;4.53;;;1.63;;
14470;SDS011;7321;50.802;4.336;2022-09-09T15:32:43;4.75;;;2.22;;
14470;SDS011;7321;50.802;4.336;2022-09-09T15:35:09;5.50;;;1.70;;
14470;SDS011;7321;50.802;4.336;2022-09-09T15:37:34;3.70;;;1.85;;
14470;SDS011;7321;50.802;4.336;2022-09-09T15:40:00;4.63;;;1.70;;
14470;SDS011;7321;50.802;4.336;2022-09-09T15:42:26;4.63;;;1.92;;
14470;SDS011;7321;50.802;4.336;2022-09-09T15:44:52;4.05;;;2.17;;
14470;SDS011;7321;50.802;4.336;2022-09-09T15:47:18;5.97;;;1.80;;
14470;SDS011;7321;50.802;4.336;2022-09-09T15:49:43;4.75;;;1.90;;
14470;SDS011;7321;50.802;4.336;2022-09-09T15:52:09;5.57;;;1.95;;
14470;SDS011;7321;50.802;4.336;2022-09-09T15:54:36;4.10;;;2.10;;
14470;SDS011;7321;50.802;4.336;2022-09-09T15:57:06;3.00;;;1.63;;
14470;SDS011;7321;50.802;4.336;2022-09-09T15:59:34;6.22;;;1.83;;
14470;SDS011;7321;50.802;4.336;2022-09-09T16:02:00;3.25;;;1.70;;
14470;SDS011;7321;50.802;4.336;2022-09-09T16:04:26;4.30;;;3.05;;
14470;SDS011;7321;50.802;4.336;2022-09-09T16:07:12;5.22;;;2.03;;
14470;SDS011;7321;50.802;4.336;2022-09-09T16:09:38;6.43;;;2.40;;
14470;SDS011;7321;50.802;4.336;2022-09-09T16:12:04;2.38;;;1.40;;
14470;SDS011;7321;50.802;4.336;2022-09-09T16:14:37;4.78;;;2.30;;
14470;SDS011;7321;50.802;4.336;2022-09-09T16:17:03;5.65;;;2.10;;
14470;SDS011;7321;50.802;4.336;2022-09-09T16:19:30;7.65;;;2.00;;
14470;SDS011;7321;50.802;4.336;2022-09-09T16:21:57;5.05;;;2.88;;
14470;SDS011;7321;50.802;4.336;2022-09-09T16:24:23;5.13;;;2.30;;
14470;SDS011;7321;50.802;4.336;2022-09-09T16:26:52;6.38;;;3.60;;
14470;SDS011;7321;50.802;4.336;2022-09-09T16:29:19;4.10;;;2.60;;
14470;SDS011;7321;50.802;4.336;2022-09-09T16:31:47;2.00;;;1.50;;
14470;SDS011;7321;50.802;4.336;2022-09-09T16:34:15;3.00;;;2.22;;
14470;SDS011;7321;50.802;4.336;2022-09-09T16:36:42;3.60;;;1.70;;
14470;SDS011;7321;50.802;4.336;2022-09-09T16:39:10;4.35;;;1.63;;
14470;SDS011;7321;50.802;4.336;2022-09-09T16:41:38;2.97;;;1.83;;
14470;SDS011;7321;50.802;4.336;2022-09-09T16:44:07;3.10;;;1.80;;
14470;SDS011;7321;50.802;4.336;2022-09-09T16:46:34;3.08;;;1.95;;
14470;SDS011;7321;50.802;4.336;2022-09-09T16:49:04;3.58;;;2.17;;
14470;SDS011;7321;50.802;4.336;2022-09-09T16:51:32;3.85;;;1.73;;
14470;SDS011;7321;50.802;4.336;2022-09-09T16:54:01;1.70;;;1.60;;
14470;SDS011;7321;50.802;4.336;2022-09-09T16:56:29;4.05;;;2.38;;
14470;SDS011;7321;50.802;4.336;2022-09-09T16:59:01;3.90;;;1.90;;
14470;SDS011;7321;50.802;4.336;2022-09-09T17:01:30;3.45;;;2.10;;
14470;SDS011;7321;50.802;4.336;2022-09-09T17:04:01;3.67;;;2.00;;
14470;SDS011;7321;50.802;4.336;2022-09-09T17:06:30;4.43;;;2.22;;
14470;SDS011;7321;50.802;4.336;2022-09-09T17:09:03;4.30;;;3.22;;
14470;SDS011;7321;50.802;4.336;2022-09-09T17:11:32;4.22;;;2.15;;
14470;SDS011;7321;50.802;4.336;2022-09-09T17:13:58;3.55;;;2.47;;
14470;SDS011;7321;50.802;4.336;2022-09-09T17:16:26;7.18;;;3.47;;
14470;SDS011;7321;50.802;4.336;2022-09-09T17:18:53;6.07;;;2.05;;
14470;SDS011;7321;50.802;4.336;2022-09-09T17:21:21;11.60;;;8.38;;
14470;SDS011;7321;50.802;4.336;2022-09-09T17:23:48;6.30;;;4.05;;
14470;SDS011;7321;50.802;4.336;2022-09-09T17:26:15;9.52;;;3.63;;
14470;SDS011;7321;50.802;4.336;2022-09-09T17:28:43;6.95;;;3.63;;
14470;SDS011;7321;50.802;4.336;2022-09-09T17:31:11;11.07;;;8.32;;
14470;SDS011;7321;50.802;4.336;2022-09-09T17:33:39;7.03;;;4.20;;